Time;durP1;ratioP1;P1;durP2;ratioP2;P2;SDS_P1;SDS_P2;PMS_P1;PMS_P2;Temp;Humidity;BMP_temperature;BMP_pressure;BME280_temperature;BME280_humidity;BME280_pressure;Samples;Min_cycle;Max_cycle;Signal;HPM_P1;HPM_P2
2023/01/29 00:02:04;;;;;;;9.93;8.40;;;1.70;99.90;;;;;;5048283;28;20628;-70
2023/01/29 00:04:30;;;;;;;11.77;9.70;;;1.60;99.90;;;;;;5048311;28;20180;-69
2023/01/29 00:06:55;;;;;;;10.53;9.00;;;1.60;99.90;;;;;;5046021;28;20173;-69
2023/01/29 00:09:21;;;;;;;10.20;9.00;;;1.60;99.90;;;;;;5033987;28;20202;-69
2023/01/29 00:11:46;;;;;;;11.80;9.20;;;1.60;99.90;;;;;;5034820;28;20640;-69
2023/01/29 00:14:12;;;;;;;11.23;8.73;;;1.60;99.90;;;;;;5034794;28;20257;-69
2023/01/29 00:16:38;;;;;;;10.80;9.70;;;1.70;99.90;;;;;;5034756;28;20206;-69
2023/01/29 00:19:04;;;;;;;9.53;8.53;;;1.60;99.90;;;;;;5033848;28;20277;-69
2023/01/29 00:21:30;;;;;;;12.53;9.83;;;1.70;99.90;;;;;;5034521;28;20193;-69
2023/01/29 00:23:56;;;;;;;11.00;9.80;;;1.70;99.90;;;;;;5034589;28;20170;-69
2023/01/29 00:26:22;;;;;;;11.97;10.10;;;1.70;99.90;;;;;;5034515;28;20436;-69
2023/01/29 00:28:48;;;;;;;9.70;8.70;;;1.70;99.90;;;;;;5033707;28;20445;-70
2023/01/29 00:31:22;;;;;;;9.97;8.90;;;1.70;99.90;;;;;;5034370;28;20623;-69
2023/01/29 00:33:48;;;;;;;10.60;8.13;;;1.60;99.90;;;;;;5034355;28;20186;-69
2023/01/29 00:36:16;;;;;;;11.63;8.27;;;1.60;99.90;;;;;;5034245;28;21310;-69
2023/01/29 00:38:42;;;;;;;11.93;9.53;;;1.50;99.90;;;;;;5033511;28;20464;-69
2023/01/29 00:46:36;;;;;;;9.90;8.77;;;1.50;99.90;;;;;;5034123;28;20840;-69
2023/01/29 00:49:03;;;;;;;12.80;9.47;;;1.40;99.90;;;;;;5033319;28;20532;-70
2023/01/29 00:51:28;;;;;;;10.37;8.60;;;1.40;99.90;;;;;;5034089;28;20181;-69
2023/01/29 00:53:57;;;;;;;10.00;9.00;;;1.50;99.90;;;;;;5034044;28;20413;-69
2023/01/29 00:56:26;;;;;;;8.47;7.57;;;1.50;99.90;;;;;;5033763;28;20290;-69
2023/01/29 00:58:52;;;;;;;12.37;9.20;;;1.60;99.90;;;;;;5033047;28;20436;-69
2023/01/29 01:03:04;;;;;;;9.73;7.60;;;1.50;99.90;;;;;;5033812;28;20409;-69
2023/01/29 01:04:08;;;;;;;10.53;8.70;;;1.40;99.90;;;;;;5033699;28;20237;-69
2023/01/29 01:06:36;;;;;;;9.80;8.80;;;1.40;99.90;;;;;;5033739;28;20412;-69
2023/01/29 01:11:46;;;;;;;9.70;8.40;;;1.40;99.90;;;;;;5033688;28;20428;-70
2023/01/29 01:14:12;;;;;;;12.10;8.30;;;1.40;99.90;;;;;;5033636;28;20433;-69
2023/01/29 01:16:37;;;;;;;10.53;7.67;;;1.40;99.90;;;;;;5033489;28;20616;-69
2023/01/29 01:19:03;;;;;;;13.60;8.30;;;1.40;99.90;;;;;;5031769;28;20194;-69
2023/01/29 01:21:29;;;;;;;9.00;7.67;;;1.40;99.90;;;;;;5033541;28;20170;-69
2023/01/29 01:23:55;;;;;;;7.90;7.10;;;1.50;99.90;;;;;;5033374;28;20792;-69
2023/01/29 01:26:20;;;;;;;8.63;7.30;;;1.50;99.90;;;;;;5033347;28;20185;-69
2023/01/29 01:28:46;;;;;;;9.50;7.30;;;1.40;99.90;;;;;;5032576;28;20198;-69
2023/01/29 01:31:12;;;;;;;12.37;8.03;;;1.40;99.90;;;;;;5033482;28;20666;-69
2023/01/29 01:33:39;;;;;;;9.63;8.00;;;1.40;99.90;;;;;;5033270;28;20173;-70
2023/01/29 01:36:08;;;;;;;9.90;8.17;;;1.40;99.90;;;;;;5033097;28;20452;-69
2023/01/29 01:38:43;;;;;;;8.33;7.30;;;1.40;99.90;;;;;;5032274;28;20444;-70
2023/01/29 01:41:10;;;;;;;8.10;7.30;;;1.50;99.90;;;;;;5033120;28;20507;-69
2023/01/29 01:43:56;;;;;;;11.10;7.93;;;1.50;99.90;;;;;;5033048;28;20413;-70
2023/01/29 01:46:24;;;;;;;8.63;7.73;;;1.60;99.90;;;;;;5032991;28;20416;-69
2023/01/29 01:49:01;;;;;;;7.63;6.83;;;1.60;99.90;;;;;;5032128;28;20436;-69
2023/01/29 01:51:31;;;;;;;8.40;7.57;;;1.60;99.90;;;;;;5032875;28;20436;-69
2023/01/29 01:54:05;;;;;;;10.77;7.27;;;1.50;99.90;;;;;;5032799;28;20813;-69
2023/01/29 01:56:39;;;;;;;9.40;7.77;;;1.40;99.90;;;;;;5032659;28;21004;-69
2023/01/29 01:59:08;;;;;;;8.60;7.20;;;1.40;99.90;;;;;;5032009;28;21028;-69
2023/01/29 02:01:34;;;;;;;14.27;7.60;;;1.50;99.90;;;;;;5032576;28;20504;-69
2023/01/29 02:10:05;;;;;;;9.27;7.90;;;1.50;99.90;;;;;;5032164;28;20467;-69
2023/01/29 02:12:31;;;;;;;8.33;7.40;;;1.40;99.90;;;;;;5032463;28;20482;-69
2023/01/29 02:14:58;;;;;;;7.37;6.67;;;1.40;99.90;;;;;;5032434;28;20421;-70
2023/01/29 02:17:24;;;;;;;9.27;7.33;;;1.40;99.90;;;;;;5032342;28;20489;-69
2023/01/29 02:20:02;;;;;;;10.97;7.73;;;1.40;99.90;;;;;;5031647;28;20499;-69
2023/01/29 02:23:04;;;;;;;13.03;7.37;;;1.40;99.90;;;;;;5032402;28;20655;-69
2023/01/29 02:25:48;;;;;;;8.67;7.00;;;1.40;99.90;;;;;;5032457;28;20413;-69
2023/01/29 02:28:40;;;;;;;7.53;6.77;;;1.30;99.90;;;;;;5031457;28;20431;-69
2023/01/29 02:31:36;;;;;;;11.80;7.30;;;1.30;99.90;;;;;;5032034;28;20409;-69
2023/01/29 02:34:28;;;;;;;7.70;6.17;;;1.30;99.90;;;;;;5032396;28;20787;-69
2023/01/29 02:37:08;;;;;;;11.53;6.70;;;1.40;99.90;;;;;;5032046;28;20484;-69
2023/01/29 02:39:50;;;;;;;7.80;7.00;;;1.30;99.90;;;;;;5031457;28;20456;-69
2023/01/29 02:42:21;;;;;;;8.53;7.50;;;1.30;99.90;;;;;;5032034;28;20405;-69
2023/01/29 02:45:08;;;;;;;7.90;7.10;;;1.30;99.90;;;;;;5032105;28;20405;-69
2023/01/29 02:47:54;;;;;;;7.17;6.47;;;1.40;99.90;;;;;;5032002;28;20440;-69
2023/01/29 02:50:27;;;;;;;8.93;7.20;;;1.40;99.90;;;;;;5031297;28;20782;-69
2023/01/29 02:53:02;;;;;;;8.53;7.63;;;1.40;99.90;;;;;;5032007;28;20416;-69
2023/01/29 02:55:59;;;;;;;11.33;6.73;;;1.40;99.90;;;;;;5031807;28;20532;-69
2023/01/29 02:58:30;;;;;;;8.73;7.27;;;1.50;99.90;;;;;;5031278;28;20787;-69
2023/01/29 03:01:07;;;;;;;8.73;6.97;;;1.40;99.90;;;;;;5031955;28;20424;-69
2023/01/29 03:03:40;;;;;;;8.70;6.63;;;1.40;99.90;;;;;;5031937;28;20413;-68
2023/01/29 03:06:17;;;;;;;7.63;6.90;;;1.50;99.90;;;;;;5031837;28;20942;-68
2023/01/29 03:08:48;;;;;;;8.00;7.20;;;1.30;99.90;;;;;;5029825;28;20451;-68
2023/01/29 03:11:16;;;;;;;7.90;7.13;;;1.30;99.90;;;;;;5031867;28;20475;-69
2023/01/29 03:13:52;;;;;;;8.30;6.83;;;1.30;99.90;;;;;;5031773;28;20424;-69
2023/01/29 03:16:38;;;;;;;9.07;6.80;;;1.40;99.90;;;;;;5031739;28;20820;-68
2023/01/29 03:19:17;;;;;;;9.10;6.27;;;1.40;99.90;;;;;;5030964;28;20440;-68
2023/01/29 03:21:57;;;;;;;8.20;6.37;;;1.40;99.90;;;;;;5031757;28;20408;-68
2023/01/29 03:32:58;;;;;;;8.07;7.27;;;1.20;99.90;;;;;;5031631;28;20451;-68
2023/01/29 03:35:36;;;;;;;8.27;7.47;;;1.20;99.90;;;;;;5031509;28;20413;-69
2023/01/29 03:38:08;;;;;;;9.60;6.90;;;1.20;99.90;;;;;;5031561;28;20447;-69
2023/01/29 03:40:56;;;;;;;7.60;6.90;;;1.20;99.90;;;;;;5031015;28;20489;-68
2023/01/29 03:43:44;;;;;;;8.30;7.50;;;1.20;99.90;;;;;;5033549;28;20416;-68
2023/01/29 03:46:22;;;;;;;8.20;7.40;;;1.20;99.90;;;;;;5035170;28;20559;-68
2023/01/29 03:49:00;;;;;;;8.50;7.57;;;1.30;99.90;;;;;;5034513;28;20440;-68
2023/01/29 03:51:52;;;;;;;7.37;6.60;;;1.30;99.90;;;;;;5035200;28;20558;-68
2023/01/29 03:54:29;;;;;;;7.77;6.80;;;1.20;99.90;;;;;;5035146;28;20508;-68
2023/01/29 03:57:34;;;;;;;12.57;7.07;;;1.30;99.90;;;;;;5034883;28;20467;-68
2023/01/29 04:00:20;;;;;;;8.10;6.70;;;1.20;99.90;;;;;;5031998;28;20424;-68
2023/01/29 04:03:04;;;;;;;7.70;6.90;;;1.10;99.90;;;;;;5034986;28;20886;-68
2023/01/29 04:05:38;;;;;;;7.90;6.80;;;1.10;99.90;;;;;;5034996;28;20424;-69
2023/01/29 04:08:09;;;;;;;9.33;7.40;;;1.20;99.90;;;;;;5034817;28;20440;-69
2023/01/29 04:10:37;;;;;;;10.67;6.70;;;1.30;99.90;;;;;;5034540;28;20405;-68
2023/01/29 04:13:06;;;;;;;6.67;5.97;;;1.40;99.90;;;;;;5034761;28;20820;-68
2023/01/29 04:15:38;;;;;;;8.60;7.70;;;1.30;99.90;;;;;;5034744;28;20420;-68
2023/01/29 04:18:04;;;;;;;8.70;7.30;;;1.20;99.90;;;;;;5034702;28;20942;-68
2023/01/29 04:20:30;;;;;;;10.70;7.93;;;1.30;99.90;;;;;;5034111;28;20427;-68
2023/01/29 04:22:55;;;;;;;9.07;7.60;;;1.20;99.90;;;;;;5034589;28;20170;-68
2023/01/29 04:25:27;;;;;;;7.80;7.00;;;1.30;99.90;;;;;;5034562;28;20209;-68
2023/01/29 04:28:15;;;;;;;7.10;6.40;;;1.30;99.90;;;;;;5034431;28;20274;-68
2023/01/29 04:30:49;;;;;;;9.20;7.77;;;1.30;99.90;;;;;;5034473;28;20926;-69
2023/01/29 04:33:23;;;;;;;8.50;6.50;;;1.30;99.90;;;;;;5034478;28;20543;-69
2023/01/29 04:36:04;;;;;;;6.70;6.10;;;1.30;99.90;;;;;;5034360;28;20895;-69
2023/01/29 04:38:54;;;;;;;8.03;7.17;;;1.30;99.90;;;;;;5033703;28;20950;-68
2023/01/29 04:41:53;;;;;;;8.33;6.77;;;1.40;99.90;;;;;;5034578;28;20918;-68
2023/01/29 04:44:38;;;;;;;10.23;7.50;;;1.40;99.90;;;;;;5034275;28;20416;-68
2023/01/29 04:47:25;;;;;;;8.13;6.90;;;1.40;99.90;;;;;;5034227;28;20797;-68
2023/01/29 04:50:07;;;;;;;10.00;7.17;;;1.40;99.90;;;;;;5033461;28;20417;-68
2023/01/29 04:52:41;;;;;;;12.33;6.73;;;1.40;99.90;;;;;;5034085;28;20939;-68
2023/01/29 04:55:12;;;;;;;7.90;5.87;;;1.40;99.90;;;;;;5033787;28;20500;-68
2023/01/29 04:57:53;;;;;;;8.33;7.03;;;1.30;99.90;;;;;;5033711;28;20830;-69
2023/01/29 05:00:29;;;;;;;8.03;6.93;;;1.30;99.90;;;;;;5033224;28;20445;-68
2023/01/29 05:02:55;;;;;;;8.50;6.60;;;1.30;99.90;;;;;;5033926;28;20412;-69
2023/01/29 05:05:21;;;;;;;7.60;6.77;;;1.40;99.90;;;;;;5034123;28;20497;-68
2023/01/29 05:07:47;;;;;;;9.07;7.43;;;1.30;99.90;;;;;;5033725;28;20519;-68
2023/01/29 05:10:17;;;;;;;7.20;6.50;;;1.30;99.90;;;;;;5034797;28;20236;-69
2023/01/29 05:12:47;;;;;;;8.93;7.03;;;1.40;99.90;;;;;;5036780;28;20423;-69
2023/01/29 05:15:20;;;;;;;8.57;7.07;;;1.30;99.90;;;;;;5036038;28;20417;-69
2023/01/29 05:17:46;;;;;;;7.60;6.80;;;1.40;99.90;;;;;;5034460;28;20460;-69
2023/01/29 05:20:12;;;;;;;9.70;7.57;;;1.30;99.90;;;;;;5035224;28;20427;-69
2023/01/29 05:22:40;;;;;;;8.73;7.00;;;1.20;99.90;;;;;;5034717;28;20544;-69
2023/01/29 05:25:24;;;;;;;8.57;7.50;;;1.20;99.90;;;;;;5036024;28;20765;-69
2023/01/29 05:28:03;;;;;;;8.10;7.13;;;1.20;99.90;;;;;;5036021;28;20433;-69
2023/01/29 05:30:30;;;;;;;21.97;18.80;;;1.20;99.90;;;;;;5035090;28;20427;-69
2023/01/29 05:32:55;;;;;;;9.43;8.30;;;1.20;99.90;;;;;;5035978;28;20421;-69
2023/01/29 05:35:21;;;;;;;9.80;7.70;;;1.20;99.90;;;;;;5035955;28;20428;-69
2023/01/29 05:37:46;;;;;;;8.30;7.37;;;1.20;99.90;;;;;;5034479;28;20194;-69
2023/01/29 05:40:12;;;;;;;10.10;7.60;;;1.10;99.90;;;;;;5034367;28;20679;-69
2023/01/29 05:42:37;;;;;;;10.97;6.50;;;1.20;99.90;;;;;;5035427;28;20225;-69
2023/01/29 05:45:04;;;;;;;7.97;7.13;;;1.20;99.90;;;;;;5034896;28;20185;-69
2023/01/29 05:47:29;;;;;;;10.97;7.47;;;1.20;99.90;;;;;;5035322;28;20637;-69
2023/01/29 05:49:55;;;;;;;7.80;7.00;;;1.20;99.90;;;;;;5034632;28;20477;-69
2023/01/29 05:52:20;;;;;;;10.37;8.57;;;1.20;99.90;;;;;;5035689;28;20205;-69
2023/01/29 05:54:46;;;;;;;8.60;7.00;;;1.10;99.90;;;;;;5035402;28;20182;-69
2023/01/29 05:57:11;;;;;;;9.80;7.37;;;1.10;99.90;;;;;;5034984;28;20574;-69
2023/01/29 05:59:37;;;;;;;9.50;7.13;;;1.00;99.90;;;;;;5034182;28;20236;-69
2023/01/29 06:02:02;;;;;;;8.60;7.73;;;1.00;99.90;;;;;;5035373;28;20170;-69
2023/01/29 06:04:28;;;;;;;7.73;6.97;;;0.90;99.90;;;;;;5035189;28;20175;-69
2023/01/29 06:06:53;;;;;;;10.23;6.53;;;0.90;99.90;;;;;;5034365;28;20523;-68
2023/01/29 06:09:19;;;;;;;8.47;7.50;;;1.00;99.90;;;;;;5033794;28;20580;-69
2023/01/29 06:11:44;;;;;;;8.67;7.70;;;1.00;99.90;;;;;;5035540;28;20268;-69
2023/01/29 06:14:10;;;;;;;8.40;7.50;;;1.00;99.90;;;;;;5034652;28;20178;-68
2023/01/29 06:16:35;;;;;;;8.97;7.10;;;1.10;99.90;;;;;;5034888;28;20208;-69
2023/01/29 06:19:01;;;;;;;10.90;7.40;;;1.00;99.90;;;;;;5034141;28;20192;-68
2023/01/29 06:21:26;;;;;;;9.00;6.23;;;1.00;99.90;;;;;;5034630;28;20174;-69
2023/01/29 06:23:52;;;;;;;10.67;8.10;;;1.00;99.90;;;;;;5034834;28;20182;-69
2023/01/29 06:26:18;;;;;;;8.70;7.60;;;1.00;99.90;;;;;;5035092;28;20244;-69
2023/01/29 06:28:44;;;;;;;8.73;7.83;;;1.00;99.90;;;;;;5034042;28;20531;-69
2023/01/29 06:31:10;;;;;;;8.00;7.20;;;1.00;99.90;;;;;;5034346;28;20658;-68
2023/01/29 06:33:36;;;;;;;8.70;6.90;;;1.00;99.90;;;;;;5034225;28;20449;-69
2023/01/29 06:36:03;;;;;;;12.33;7.53;;;1.00;99.90;;;;;;5034475;28;20198;-69
2023/01/29 06:38:29;;;;;;;11.47;8.43;;;0.90;99.90;;;;;;5034537;28;20194;-69
2023/01/29 06:40:55;;;;;;;11.30;6.53;;;0.90;99.90;;;;;;5035874;28;21105;-69
2023/01/29 06:43:22;;;;;;;8.40;7.07;;;0.90;99.90;;;;;;5036246;28;20428;-68
2023/01/29 06:45:52;;;;;;;10.70;6.90;;;1.00;99.90;;;;;;5035608;28;20432;-68
2023/01/29 06:48:18;;;;;;;8.07;7.20;;;1.00;99.90;;;;;;5034503;28;20786;-69
2023/01/29 06:50:44;;;;;;;9.83;7.93;;;1.00;99.90;;;;;;5035140;28;20511;-68
2023/01/29 06:53:10;;;;;;;8.63;7.50;;;1.00;99.90;;;;;;5034934;28;20429;-69
2023/01/29 06:55:35;;;;;;;9.20;8.30;;;1.00;99.90;;;;;;5035054;28;20440;-69
2023/01/29 06:58:09;;;;;;;8.50;7.60;;;1.00;99.90;;;;;;5034815;28;20201;-69
2023/01/29 07:00:35;;;;;;;10.10;7.50;;;1.10;99.90;;;;;;5035113;28;20178;-69
2023/01/29 07:03:01;;;;;;;9.50;7.40;;;1.10;99.90;;;;;;5034820;28;20982;-69
2023/01/29 07:05:26;;;;;;;8.17;7.03;;;1.10;99.90;;;;;;5035138;28;20178;-69
2023/01/29 07:07:52;;;;;;;9.30;8.10;;;1.10;99.90;;;;;;5034482;28;20441;-69
2023/01/29 07:10:17;;;;;;;8.83;7.97;;;1.10;99.90;;;;;;5034678;28;20245;-69
2023/01/29 07:12:43;;;;;;;9.57;7.93;;;1.10;99.90;;;;;;5034850;28;20170;-69
2023/01/29 07:15:11;;;;;;;8.63;7.77;;;1.10;99.90;;;;;;5035195;28;20178;-69
2023/01/29 07:17:37;;;;;;;9.50;7.20;;;1.10;99.90;;;;;;5035356;28;20218;-68
2023/01/29 07:20:03;;;;;;;10.10;9.07;;;1.20;99.90;;;;;;5038359;28;20471;-69
2023/01/29 07:22:28;;;;;;;10.20;9.20;;;1.20;99.90;;;;;;5038527;28;20537;-68
2023/01/29 07:24:54;;;;;;;8.60;7.20;;;1.00;99.90;;;;;;5038732;28;20251;-69
2023/01/29 07:27:19;;;;;;;11.37;7.73;;;0.90;99.90;;;;;;5038233;28;20339;-69
2023/01/29 07:29:44;;;;;;;9.90;8.17;;;0.90;99.90;;;;;;5038107;28;20182;-69
2023/01/29 07:32:10;;;;;;;8.13;6.80;;;1.00;99.90;;;;;;5039044;28;20174;-68
2023/01/29 07:34:35;;;;;;;10.57;7.93;;;1.10;99.90;;;;;;5037393;28;20178;-69
2023/01/29 07:37:01;;;;;;;8.70;6.97;;;1.20;99.90;;;;;;5038619;28;20237;-69
2023/01/29 07:39:26;;;;;;;8.60;7.70;;;1.20;99.90;;;;;;5037582;28;20190;-69
2023/01/29 07:41:52;;;;;;;7.33;6.63;;;1.20;99.90;;;;;;5038495;28;20668;-69
2023/01/29 07:44:17;;;;;;;9.07;7.27;;;1.30;99.90;;;;;;5038705;28;20182;-69
2023/01/29 07:46:43;;;;;;;10.93;7.30;;;1.20;99.90;;;;;;5038432;28;20181;-69
2023/01/29 07:49:09;;;;;;;8.47;7.13;;;1.10;99.90;;;;;;5037577;28;20197;-69
2023/01/29 07:51:34;;;;;;;10.13;7.13;;;1.10;99.90;;;;;;5038240;28;20181;-69
2023/01/29 07:53:59;;;;;;;9.30;8.30;;;1.20;99.90;;;;;;5037840;28;20179;-68
2023/01/29 07:56:25;;;;;;;10.33;7.87;;;1.30;99.90;;;;;;5038157;28;20210;-69
2023/01/29 07:58:51;;;;;;;6.57;5.90;;;1.40;99.90;;;;;;5037417;28;20190;-69
2023/01/29 08:01:17;;;;;;;8.20;7.40;;;1.50;99.90;;;;;;5036896;28;20178;-69
2023/01/29 08:03:42;;;;;;;10.07;7.77;;;1.40;99.90;;;;;;5038699;28;20752;-69
2023/01/29 08:06:07;;;;;;;9.10;7.63;;;1.50;99.90;;;;;;5038078;28;20262;-69
2023/01/29 08:08:33;;;;;;;9.30;7.53;;;1.50;99.90;;;;;;5037757;28;20236;-69
2023/01/29 08:11:04;;;;;;;10.83;8.57;;;1.40;99.90;;;;;;5038222;28;20170;-69
2023/01/29 08:13:30;;;;;;;9.43;8.47;;;1.40;99.90;;;;;;5037642;28;20182;-69
2023/01/29 08:16:03;;;;;;;9.07;8.20;;;1.40;99.90;;;;;;5037594;28;20456;-68
2023/01/29 08:18:30;;;;;;;8.27;7.40;;;1.40;99.90;;;;;;5036966;28;20474;-69
2023/01/29 08:21:00;;;;;;;9.20;7.60;;;1.50;99.90;;;;;;5038278;28;20420;-69
2023/01/29 08:23:25;;;;;;;8.80;7.00;;;1.60;99.90;;;;;;5037140;28;20452;-69
2023/01/29 08:25:50;;;;;;;8.60;7.70;;;1.60;99.90;;;;;;5037887;28;20428;-69
2023/01/29 08:28:16;;;;;;;10.13;9.03;;;1.60;99.90;;;;;;5036834;28;20202;-69
2023/01/29 08:30:42;;;;;;;9.73;8.13;;;1.60;99.90;;;;;;5037754;28;20640;-69
2023/01/29 08:33:09;;;;;;;9.20;8.20;;;1.60;99.90;;;;;;5037916;28;20552;-69
2023/01/29 08:35:34;;;;;;;11.73;9.30;;;1.60;99.90;;;;;;5037465;28;20420;-69
2023/01/29 08:38:02;;;;;;;8.67;7.77;;;1.60;99.90;;;;;;5036740;28;20540;-69
2023/01/29 08:40:30;;;;;;;10.17;8.13;;;1.60;99.90;;;;;;5035170;28;20178;-69
2023/01/29 08:43:07;;;;;;;9.80;7.60;;;1.60;99.90;;;;;;5037449;28;20432;-68
2023/01/29 08:45:34;;;;;;;9.97;8.37;;;1.60;99.90;;;;;;5036997;28;20425;-69
2023/01/29 08:48:00;;;;;;;11.47;8.77;;;1.60;99.90;;;;;;5037247;28;20479;-68
2023/01/29 08:50:26;;;;;;;10.43;8.10;;;1.70;99.90;;;;;;5036327;28;20938;-68
2023/01/29 08:52:57;;;;;;;9.30;7.87;;;1.70;99.90;;;;;;5037232;28;20305;-68
2023/01/29 08:55:22;;;;;;;11.20;9.60;;;1.80;99.90;;;;;;5036996;28;20174;-68
2023/01/29 08:57:47;;;;;;;9.87;8.87;;;1.90;99.90;;;;;;5036834;28;20836;-68
2023/01/29 09:00:14;;;;;;;11.20;9.57;;;1.90;99.90;;;;;;5035165;28;20178;-68
2023/01/29 09:02:39;;;;;;;12.00;10.27;;;1.90;99.90;;;;;;5037305;28;20170;-69
2023/01/29 09:05:05;;;;;;;10.33;9.33;;;1.90;99.90;;;;;;5036835;28;20421;-69
2023/01/29 09:07:31;;;;;;;9.63;8.57;;;1.90;99.90;;;;;;5038983;28;20282;-68
2023/01/29 09:09:57;;;;;;;12.60;9.43;;;1.90;99.90;;;;;;5039121;28;20520;-68
2023/01/29 09:12:22;;;;;;;11.47;8.50;;;2.10;99.90;;;;;;5037899;28;20551;-68
2023/01/29 09:14:48;;;;;;;11.00;8.80;;;2.00;99.90;;;;;;5036069;28;20595;-71
2023/01/29 09:17:14;;;;;;;10.47;9.00;;;2.10;99.90;;;;;;5036616;28;20222;-68
2023/01/29 09:19:39;;;;;;;10.43;9.33;;;2.10;99.90;;;;;;5035698;28;20250;-68
2023/01/29 09:22:05;;;;;;;9.30;8.40;;;2.00;99.90;;;;;;5036191;28;20517;-68
2023/01/29 09:24:31;;;;;;;9.13;8.27;;;2.10;99.90;;;;;;5035918;28;20186;-69
2023/01/29 09:26:57;;;;;;;10.03;9.00;;;2.20;99.90;;;;;;5036230;28;20178;-68
2023/01/29 09:29:22;;;;;;;10.43;9.33;;;2.30;99.90;;;;;;5035114;28;20448;-68
2023/01/29 09:31:48;;;;;;;10.83;8.60;;;2.00;99.90;;;;;;5035308;28;20268;-69
2023/01/29 09:34:13;;;;;;;9.83;8.70;;;2.00;99.90;;;;;;5035391;28;20181;-69
2023/01/29 09:36:39;;;;;;;9.07;8.13;;;2.00;99.90;;;;;;5035795;28;20204;-68
2023/01/29 09:39:04;;;;;;;8.47;7.63;;;2.00;99.90;;;;;;5034667;28;20201;-68
2023/01/29 09:42:01;;;;;;;9.07;8.07;;;2.00;99.90;;;;;;5034733;28;20178;-68
2023/01/29 09:44:37;;;;;;;9.70;8.70;;;2.00;99.90;;;;;;5035420;28;20186;-69
2023/01/29 09:47:07;;;;;;;12.73;8.03;;;2.20;99.90;;;;;;5036046;28;20416;-68
2023/01/29 09:49:41;;;;;;;9.90;8.47;;;2.20;99.90;;;;;;5034764;28;20447;-68
2023/01/29 09:52:25;;;;;;;10.43;9.37;;;2.20;99.90;;;;;;5036030;28;20464;-68
2023/01/29 09:55:03;;;;;;;11.23;8.57;;;2.30;99.90;;;;;;5036751;28;20433;-68
2023/01/29 09:57:39;;;;;;;9.60;8.60;;;2.30;99.90;;;;;;5036057;28;20467;-69
2023/01/29 10:00:05;;;;;;;10.13;9.10;;;2.40;99.90;;;;;;5036485;28;20515;-69
2023/01/29 10:03:14;;;;;;;8.90;8.10;;;2.60;99.90;;;;;;5036835;28;20439;-68
2023/01/29 10:06:20;;;;;;;10.33;9.10;;;2.60;99.90;;;;;;5016605;28;20428;-68
2023/01/29 10:09:01;;;;;;;8.87;8.00;;;2.30;99.90;;;;;;5034884;28;20469;-69
2023/01/29 10:12:04;;;;;;;12.37;10.43;;;2.00;99.90;;;;;;5035299;28;20419;-71
2023/01/29 10:14:48;;;;;;;11.93;8.97;;;2.10;99.90;;;;;;5036815;28;20420;-68
2023/01/29 10:17:53;;;;;;;10.57;9.17;;;2.50;99.90;;;;;;5036683;28;20490;-68
2023/01/29 10:20:36;;;;;;;13.17;9.03;;;2.60;99.90;;;;;;5035180;28;20479;-68
2023/01/29 10:23:14;;;;;;;11.07;9.87;;;2.80;99.90;;;;;;5036884;28;20799;-71
2023/01/29 10:25:41;;;;;;;9.80;8.63;;;2.90;99.90;;;;;;5036735;28;20424;-69
2023/01/29 10:28:36;;;;;;;9.70;8.80;;;3.10;99.90;;;;;;5036606;28;20445;-68
2023/01/29 10:31:23;;;;;;;12.80;8.30;;;3.20;99.90;;;;;;5031923;28;20432;-68
2023/01/29 10:34:00;;;;;;;13.03;9.20;;;3.00;99.90;;;;;;5036436;28;20448;-69
2023/01/29 10:36:32;;;;;;;10.20;9.10;;;3.20;99.90;;;;;;5036688;28;20487;-69
2023/01/29 10:38:58;;;;;;;10.37;9.37;;;3.40;99.90;;;;;;5035735;28;20428;-68
2023/01/29 10:41:33;;;;;;;11.83;10.50;;;3.50;99.90;;;;;;5036031;28;20516;-69
2023/01/29 10:44:17;;;;;;;16.83;9.70;;;3.60;99.90;;;;;;5035632;28;20236;-69
2023/01/29 10:46:54;;;;;;;10.17;9.10;;;3.70;99.90;;;;;;5036954;28;20444;-68
2023/01/29 10:49:37;;;;;;;10.70;9.60;;;3.10;99.90;;;;;;5035578;28;20838;-71
2023/01/29 10:52:15;;;;;;;12.77;9.97;;;3.10;99.90;;;;;;5036531;28;20425;-69
2023/01/29 10:55:10;;;;;;;9.97;8.77;;;3.30;99.90;;;;;;5036335;28;20828;-69
2023/01/29 10:57:50;;;;;;;10.83;8.50;;;3.50;99.90;;;;;;5036472;28;20475;-68
2023/01/29 11:00:25;;;;;;;11.87;10.23;;;3.60;99.90;;;;;;5035185;28;20469;-69
2023/01/29 11:02:51;;;;;;;11.97;9.67;;;3.60;99.90;;;;;;5035922;28;20427;-69
2023/01/29 11:05:33;;;;;;;10.40;8.87;;;3.70;99.90;;;;;;5035667;28;20421;-69
2023/01/29 11:08:07;;;;;;;10.67;9.67;;;3.50;99.90;;;;;;5035436;28;20447;-69
2023/01/29 11:10:40;;;;;;;11.83;10.20;;;3.80;99.90;;;;;;5032811;28;20421;-68
2023/01/29 11:13:13;;;;;;;11.20;9.47;;;4.20;99.90;;;;;;5031798;28;20918;-68
2023/01/29 11:15:38;;;;;;;10.63;9.53;;;4.40;99.90;;;;;;5031796;28;20428;-68
2023/01/29 11:18:14;;;;;;;11.43;9.40;;;4.60;99.90;;;;;;5031634;28;20567;-68
2023/01/29 11:20:42;;;;;;;9.93;9.00;;;4.50;99.90;;;;;;5031799;28;20574;-68
2023/01/29 11:23:24;;;;;;;11.27;9.80;;;4.80;99.90;;;;;;5030498;28;20433;-68
2023/01/29 11:25:54;;;;;;;11.43;10.33;;;4.40;99.90;;;;;;5031644;28;20417;-68
2023/01/29 11:28:41;;;;;;;10.83;9.73;;;4.20;99.90;;;;;;5030909;28;20433;-68
2023/01/29 11:31:25;;;;;;;26.07;17.40;;;4.20;99.90;;;;;;5031669;28;20416;-68
2023/01/29 11:34:15;;;;;;;13.37;10.73;;;4.60;99.90;;;;;;5031607;28;20463;-68
2023/01/29 11:36:40;;;;;;;11.33;9.03;;;4.30;99.90;;;;;;5031620;28;20521;-68
2023/01/29 11:39:20;;;;;;;11.17;10.00;;;4.30;99.90;;;;;;5030882;28;20954;-68
2023/01/29 11:41:48;;;;;;;10.20;9.20;;;4.30;99.90;;;;;;5030177;28;20174;-68
2023/01/29 11:44:35;;;;;;;10.40;9.30;;;4.50;99.90;;;;;;5031531;28;20816;-68
2023/01/29 11:47:28;;;;;;;10.70;9.60;;;4.60;99.90;;;;;;5031508;28;20478;-68
2023/01/29 11:50:00;;;;;;;10.67;9.67;;;4.80;99.90;;;;;;5029150;28;20854;-68
2023/01/29 11:52:40;;;;;;;10.10;9.10;;;4.50;99.90;;;;;;5031457;28;20429;-69
2023/01/29 11:55:16;;;;;;;14.73;11.77;;;4.50;99.90;;;;;;5031462;28;20420;-68
2023/01/29 11:57:45;;;;;;;10.93;9.73;;;4.50;99.90;;;;;;5031321;28;20459;-68
2023/01/29 12:00:26;;;;;;;13.00;10.70;;;4.60;99.90;;;;;;5030708;28;20792;-68
2023/01/29 12:02:59;;;;;;;12.13;10.93;;;4.70;99.90;;;;;;5031451;28;20424;-68
2023/01/29 12:05:25;;;;;;;10.80;9.70;;;4.70;99.90;;;;;;5035269;28;20440;-68
2023/01/29 12:07:55;;;;;;;13.53;9.70;;;4.70;99.90;;;;;;5034830;28;20481;-68
2023/01/29 12:10:30;;;;;;;11.93;10.70;;;4.90;99.90;;;;;;5034214;28;20433;-68
2023/01/29 12:13:05;;;;;;;12.40;10.73;;;5.20;99.90;;;;;;5034838;28;20432;-68
2023/01/29 12:15:30;;;;;;;12.27;11.07;;;5.30;99.90;;;;;;5034634;28;20918;-68
2023/01/29 12:18:10;;;;;;;12.43;11.20;;;5.30;99.90;;;;;;5033647;28;20499;-68
2023/01/29 12:20:47;;;;;;;11.13;9.90;;;5.40;99.90;;;;;;5034453;28;20174;-69
2023/01/29 12:23:21;;;;;;;11.80;10.60;;;5.30;99.90;;;;;;5034651;28;20424;-68
2023/01/29 12:26:02;;;;;;;11.00;9.73;;;5.90;99.90;;;;;;5034588;28;20424;-68
2023/01/29 12:28:48;;;;;;;16.37;11.90;;;6.00;99.90;;;;;;5033822;28;20503;-68
2023/01/29 12:31:45;;;;;;;12.40;9.50;;;6.60;99.90;;;;;;5034532;28;20425;-68
2023/01/29 12:34:38;;;;;;;12.30;11.10;;;7.70;99.90;;;;;;5020104;28;20425;-68
2023/01/29 12:37:18;;;;;;;13.03;10.47;;;7.70;99.90;;;;;;5031802;28;20495;-69
2023/01/29 12:39:43;;;;;;;10.40;9.47;;;7.90;99.90;;;;;;5033563;28;20428;-68
2023/01/29 12:42:14;;;;;;;11.27;10.17;;;8.40;99.90;;;;;;5034314;28;20409;-69
2023/01/29 12:44:47;;;;;;;11.27;10.10;;;8.70;98.90;;;;;;5034184;28;20171;-69
2023/01/29 12:47:32;;;;;;;10.70;9.60;;;9.40;96.60;;;;;;5034269;28;20413;-69
2023/01/29 12:50:04;;;;;;;11.93;9.57;;;9.40;96.60;;;;;;5033454;28;20421;-69
2023/01/29 12:52:40;;;;;;;11.17;9.80;;;10.30;94.10;;;;;;5034187;28;20405;-69
2023/01/29 12:55:22;;;;;;;10.27;9.10;;;9.80;92.70;;;;;;5033971;28;20455;-68
2023/01/29 12:58:00;;;;;;;10.50;9.40;;;9.60;93.20;;;;;;5033861;28;20826;-69
2023/01/29 13:00:31;;;;;;;10.70;9.80;;;10.10;92.30;;;;;;5033215;28;20479;-69
2023/01/29 13:03:16;;;;;;;11.70;10.50;;;10.60;91.90;;;;;;5033809;28;20420;-69
2023/01/29 13:05:49;;;;;;;10.33;9.43;;;10.60;89.20;;;;;;5033730;28;20409;-68
2023/01/29 13:08:34;;;;;;;10.00;9.00;;;9.50;91.60;;;;;;5032911;28;20432;-69
2023/01/29 13:11:02;;;;;;;11.30;10.10;;;8.70;93.00;;;;;;5033555;28;20926;-69
2023/01/29 13:13:43;;;;;;;9.87;8.87;;;8.10;96.90;;;;;;5033542;28;20423;-69
2023/01/29 13:16:12;;;;;;;10.93;9.90;;;8.00;96.60;;;;;;5033471;28;20480;-69
2023/01/29 13:18:48;;;;;;;17.10;10.30;;;8.60;96.20;;;;;;5032712;28;20527;-69
2023/01/29 13:21:26;;;;;;;10.17;9.20;;;8.00;96.80;;;;;;5033411;28;20413;-69
2023/01/29 13:24:03;;;;;;;11.30;10.20;;;7.90;97.90;;;;;;5033435;28;20421;-69
2023/01/29 13:26:30;;;;;;;10.90;9.87;;;8.80;96.60;;;;;;5033345;28;20466;-69
2023/01/29 13:28:57;;;;;;;11.17;10.07;;;9.70;94.00;;;;;;5032639;28;20433;-69
2023/01/29 13:31:32;;;;;;;11.93;10.70;;;10.40;92.70;;;;;;5033206;28;20917;-69
2023/01/29 13:34:24;;;;;;;11.13;10.03;;;11.70;91.20;;;;;;5033384;28;20508;-69
2023/01/29 13:37:08;;;;;;;11.70;10.43;;;11.80;85.40;;;;;;5033333;28;20506;-69
2023/01/29 13:39:45;;;;;;;10.57;9.57;;;12.50;83.80;;;;;;5032473;28;20429;-69
2023/01/29 13:42:20;;;;;;;10.40;9.40;;;12.70;79.30;;;;;;5033135;28;20466;-69